createdAt,value
2022-08-03T00:01:54.124Z,99.90
2022-08-03T00:04:22.436Z,99.90
2022-08-03T00:07:02.694Z,99.90
2022-08-03T00:09:35.565Z,99.90
2022-08-03T00:12:04.415Z,99.90
2022-08-03T00:14:32.766Z,99.90
2022-08-03T00:17:02.482Z,99.90
2022-08-03T00:19:30.963Z,99.90
2022-08-03T00:21:59.205Z,99.90
2022-08-03T00:24:27.582Z,99.90
2022-08-03T00:26:55.865Z,99.90
2022-08-03T00:29:24.164Z,99.90
2022-08-03T00:31:59.474Z,99.90
2022-08-03T00:34:36.598Z,99.90
2022-08-03T00:37:18.391Z,99.90
2022-08-03T00:39:48.145Z,99.90
2022-08-03T00:42:16.797Z,99.90
2022-08-03T00:44:46.634Z,99.90
2022-08-03T00:47:14.992Z,99.90
2022-08-03T00:49:44.816Z,99.90
2022-08-03T00:52:16.527Z,99.90
2022-08-03T00:54:44.877Z,99.90
2022-08-03T00:57:13.387Z,99.90
2022-08-03T00:59:41.690Z,99.90
2022-08-03T01:02:09.995Z,99.90
2022-08-03T01:04:38.358Z,99.90
2022-08-03T01:07:17.458Z,99.90
2022-08-03T01:09:57.289Z,99.90
2022-08-03T01:12:36.116Z,99.90
2022-08-03T01:15:11.479Z,99.90
2022-08-03T01:17:50.728Z,99.90
2022-08-03T01:20:21.958Z,99.90
2022-08-03T01:23:04.433Z,99.90
2022-08-03T01:25:44.381Z,99.90
2022-08-03T01:28:28.773Z,99.90
2022-08-03T01:31:02.934Z,99.90
2022-08-03T01:33:37.776Z,99.90
2022-08-03T01:36:08.818Z,99.90
2022-08-03T01:38:43.114Z,99.90
2022-08-03T01:41:14.946Z,99.90
2022-08-03T01:44:26.828Z,99.90
2022-08-03T01:46:40.440Z,99.90
2022-08-03T01:49:17.632Z,99.90
2022-08-03T01:51:57.733Z,99.90
2022-08-03T01:54:36.046Z,99.90
2022-08-03T01:57:05.523Z,99.90
2022-08-03T01:59:36.841Z,99.90
2022-08-03T02:02:29.202Z,99.90
2022-08-03T02:04:57.999Z,99.90
2022-08-03T02:07:27.871Z,99.90
2022-08-03T02:09:58.386Z,99.90
2022-08-03T02:12:28.879Z,99.90
2022-08-03T02:15:00.015Z,99.90
2022-08-03T02:17:39.618Z,99.90
2022-08-03T02:20:12.246Z,99.90
2022-08-03T02:22:42.077Z,99.90
2022-08-03T02:25:11.925Z,99.90
2022-08-03T02:27:44.291Z,99.90
2022-08-03T02:30:14.444Z,99.90
2022-08-03T02:32:50.034Z,99.90
2022-08-03T02:35:21.583Z,99.90
2022-08-03T02:37:53.803Z,99.90
2022-08-03T02:40:24.495Z,99.90
2022-08-03T02:42:56.739Z,99.90
2022-08-03T02:45:27.397Z,99.90
2022-08-03T02:48:02.127Z,99.90
2022-08-03T02:50:31.815Z,99.90
2022-08-03T02:53:00.860Z,99.90
2022-08-03T02:55:30.600Z,99.90
2022-08-03T02:58:01.601Z,99.90
2022-08-03T03:00:32.506Z,99.90
2022-08-03T03:03:06.306Z,99.90
2022-08-03T03:05:54.682Z,99.90
2022-08-03T03:08:28.761Z,99.90
2022-08-03T03:10:59.418Z,99.90
2022-08-03T03:13:29.370Z,99.90
2022-08-03T03:16:01.627Z,99.90
2022-08-03T03:18:33.739Z,99.90
2022-08-03T03:21:04.356Z,99.90
2022-08-03T03:23:36.417Z,99.90
2022-08-03T03:26:05.888Z,99.90
2022-08-03T03:28:37.011Z,99.90
2022-08-03T03:31:06.125Z,99.90
2022-08-03T03:33:37.215Z,99.90
2022-08-03T03:36:06.709Z,99.90
2022-08-03T03:38:35.702Z,99.90
2022-08-03T03:41:04.445Z,99.90
2022-08-03T03:43:33.186Z,99.90
2022-08-03T03:46:02.379Z,99.90
2022-08-03T03:48:30.652Z,99.90
2022-08-03T03:51:02.761Z,99.90
2022-08-03T03:53:30.987Z,99.90
2022-08-03T03:56:02.668Z,99.90
2022-08-03T03:58:33.734Z,99.90
2022-08-03T04:01:02.282Z,99.90
2022-08-03T04:03:30.777Z,99.90
2022-08-03T04:06:16.746Z,99.90
2022-08-03T04:09:16.005Z,99.90
2022-08-03T04:11:50.204Z,99.90
2022-08-03T04:14:21.916Z,99.90
2022-08-03T04:16:53.184Z,99.90
2022-08-03T04:19:27.508Z,99.90
2022-08-03T04:21:59.088Z,99.90
2022-08-03T04:24:35.130Z,99.90
2022-08-03T04:27:06.739Z,99.90
2022-08-03T04:29:38.692Z,99.90
2022-08-03T04:32:16.374Z,99.90
2022-08-03T04:34:45.075Z,99.90
2022-08-03T04:37:17.802Z,99.90
2022-08-03T04:39:50.487Z,99.90
2022-08-03T04:42:23.630Z,99.90
2022-08-03T04:44:55.578Z,99.90
2022-08-03T04:47:27.675Z,99.90
2022-08-03T04:49:56.809Z,99.90
2022-08-03T04:52:25.615Z,99.90
2022-08-03T04:54:55.418Z,99.90
2022-08-03T04:57:23.799Z,99.90
2022-08-03T05:00:01.446Z,99.90
2022-08-03T05:02:32.429Z,99.90
2022-08-03T05:05:01.072Z,99.90
2022-08-03T05:07:36.090Z,99.90
2022-08-03T05:10:14.886Z,99.90
2022-08-03T05:12:45.709Z,99.90
2022-08-03T05:15:14.252Z,99.90
2022-08-03T05:17:43.678Z,99.90
2022-08-03T05:20:12.987Z,99.90
2022-08-03T05:22:41.489Z,99.90
2022-08-03T05:25:19.815Z,99.90
2022-08-03T05:27:49.861Z,99.90
2022-08-03T05:30:31.109Z,99.90
2022-08-03T05:33:03.779Z,99.90
2022-08-03T05:36:01.413Z,99.90
2022-08-03T05:38:28.271Z,99.90
2022-08-03T05:41:20.990Z,99.90
2022-08-03T05:43:48.194Z,99.90
2022-08-03T05:46:16.779Z,99.90
2022-08-03T05:48:45.073Z,99.90
2022-08-03T05:51:13.616Z,99.90
2022-08-03T05:53:42.809Z,99.90
2022-08-03T05:56:15.094Z,99.90
2022-08-03T05:58:45.490Z,99.90
2022-08-03T06:01:13.841Z,99.90
2022-08-03T06:03:43.763Z,99.90
2022-08-03T06:06:12.514Z,99.90
2022-08-03T06:08:41.773Z,99.90
2022-08-03T06:11:10.421Z,99.90
2022-08-03T06:13:40.347Z,99.90
2022-08-03T06:16:08.647Z,99.90
2022-08-03T06:18:37.556Z,99.90
2022-08-03T06:21:14.454Z,99.90
2022-08-03T06:23:53.035Z,99.90
2022-08-03T06:26:22.314Z,99.90
2022-08-03T06:28:54.234Z,99.90
2022-08-03T06:31:25.999Z,99.90
2022-08-03T06:34:34.055Z,99.90
2022-08-03T06:36:52.234Z,99.90
2022-08-03T06:39:23.433Z,99.90
2022-08-03T06:41:53.605Z,99.90
2022-08-03T06:44:23.228Z,99.90
2022-08-03T06:46:51.915Z,99.90
2022-08-03T06:49:20.405Z,99.90
2022-08-03T06:52:04.327Z,99.90
2022-08-03T06:54:35.928Z,99.90
2022-08-03T06:57:04.875Z,99.90
2022-08-03T07:00:06.146Z,99.90
2022-08-03T07:02:24.182Z,99.90
2022-08-03T07:04:56.784Z,99.90
2022-08-03T07:07:25.062Z,99.90
2022-08-03T07:09:57.335Z,99.90
2022-08-03T07:12:28.183Z,99.90
2022-08-03T07:15:01.827Z,99.90
2022-08-03T07:17:31.483Z,99.90
2022-08-03T07:20:00.218Z,99.90
2022-08-03T07:22:28.695Z,99.90
2022-08-03T07:24:58.634Z,99.90
2022-08-03T07:27:29.483Z,99.90
2022-08-03T07:30:00.155Z,99.90
2022-08-03T07:32:31.497Z,99.90
2022-08-03T07:35:01.235Z,99.90
2022-08-03T07:37:30.878Z,99.90
2022-08-03T07:39:59.593Z,99.90
2022-08-03T07:42:27.946Z,99.90
2022-08-03T07:44:56.818Z,99.90
2022-08-03T07:47:34.957Z,99.90
2022-08-03T07:50:05.693Z,99.90
2022-08-03T07:52:49.573Z,99.90
2022-08-03T07:55:18.773Z,99.90
2022-08-03T07:57:47.030Z,99.90
2022-08-03T08:00:17.776Z,99.90
2022-08-03T08:02:47.701Z,99.90
2022-08-03T08:05:16.025Z,99.90
2022-08-03T08:07:44.316Z,99.90
2022-08-03T08:10:19.341Z,99.90
2022-08-03T08:12:48.309Z,99.90
2022-08-03T08:15:16.965Z,99.90
2022-08-03T08:17:48.635Z,99.90
2022-08-03T08:20:28.078Z,99.90
2022-08-03T08:23:01.586Z,99.90
2022-08-03T08:25:31.652Z,99.90
2022-08-03T08:28:30.710Z,99.90
2022-08-03T08:30:51.383Z,99.90
2022-08-03T08:33:23.327Z,99.90
2022-08-03T08:35:54.194Z,99.90
2022-08-03T08:38:23.108Z,99.90
2022-08-03T08:40:52.111Z,99.90
2022-08-03T08:43:20.501Z,99.90
2022-08-03T08:45:51.740Z,99.90
2022-08-03T08:48:25.621Z,99.90
2022-08-03T08:50:55.007Z,99.90
2022-08-03T08:53:27.173Z,99.90
2022-08-03T08:56:00.919Z,99.90
2022-08-03T08:58:33.506Z,99.90
2022-08-03T09:01:01.875Z,99.90
2022-08-03T09:03:34.043Z,99.90
2022-08-03T09:06:02.824Z,99.90
2022-08-03T09:08:32.498Z,99.90
2022-08-03T09:11:00.986Z,99.90
2022-08-03T09:13:30.624Z,99.30
2022-08-03T09:16:13.658Z,95.30
2022-08-03T09:18:44.185Z,90.90
2022-08-03T09:21:33.944Z,87.10
2022-08-03T09:24:08.473Z,90.10
2022-08-03T09:26:53.604Z,87.10
2022-08-03T09:29:23.230Z,90.00
2022-08-03T09:32:01.169Z,86.20
2022-08-03T09:34:31.814Z,78.40
2022-08-03T09:37:00.091Z,76.80
2022-08-03T09:39:41.040Z,79.90
2022-08-03T09:42:14.678Z,86.20
2022-08-03T09:44:44.748Z,84.40
2022-08-03T09:47:14.068Z,88.20
2022-08-03T09:49:57.255Z,84.30
2022-08-03T09:52:49.344Z,85.00
2022-08-03T09:56:32.953Z,83.30
2022-08-03T09:58:10.758Z,88.60
2022-08-03T10:00:55.975Z,90.70
2022-08-03T10:03:25.010Z,85.30
2022-08-03T10:05:59.338Z,90.00
2022-08-03T10:08:28.839Z,91.80
2022-08-03T10:10:58.816Z,87.00
2022-08-03T10:13:27.181Z,87.00
2022-08-03T10:16:21.203Z,87.30
2022-08-03T10:18:43.802Z,78.90
2022-08-03T10:21:29.806Z,81.00
2022-08-03T10:23:58.542Z,77.00
2022-08-03T10:26:33.746Z,68.90
2022-08-03T10:29:12.446Z,69.20
2022-08-03T10:31:55.916Z,66.00
2022-08-03T10:37:01.318Z,66.60
2022-08-03T10:39:31.385Z,65.20
2022-08-03T10:42:02.554Z,65.70
2022-08-03T10:44:38.415Z,65.10
2022-08-03T10:47:07.254Z,63.80
2022-08-03T10:49:36.061Z,62.40
2022-08-03T10:52:13.207Z,54.70
2022-08-03T10:55:12.870Z,56.70
2022-08-03T10:57:50.560Z,54.70
2022-08-03T11:00:22.342Z,53.60
2022-08-03T11:03:08.847Z,57.10
2022-08-03T11:05:40.136Z,65.20
2022-08-03T11:08:31.219Z,69.60
2022-08-03T11:11:01.752Z,63.50
2022-08-03T11:13:34.014Z,71.60
2022-08-03T11:16:07.787Z,66.60
2022-08-03T11:18:37.899Z,61.40
2022-08-03T11:21:07.222Z,56.90
2022-08-03T11:24:04.172Z,57.40
2022-08-03T11:26:34.413Z,58.20
2022-08-03T11:29:30.162Z,61.80
2022-08-03T11:31:58.796Z,60.70
2022-08-03T11:34:27.784Z,63.50
2022-08-03T11:37:28.793Z,69.20
2022-08-03T11:40:03.140Z,68.20
2022-08-03T11:42:51.192Z,70.30
2022-08-03T11:45:19.975Z,70.30
2022-08-03T11:47:51.564Z,71.30
2022-08-03T11:50:21.544Z,73.60
2022-08-03T11:52:50.833Z,73.00
2022-08-03T11:55:22.005Z,76.40
2022-08-03T11:59:13.166Z,75.20
2022-08-03T12:00:40.576Z,74.40
2022-08-03T12:03:11.289Z,78.70
2022-08-03T12:05:52.692Z,74.90
2022-08-03T12:08:32.715Z,75.30
2022-08-03T12:11:05.794Z,76.50
2022-08-03T12:14:44.892Z,75.10
2022-08-03T12:16:30.464Z,76.80
2022-08-03T12:18:59.949Z,74.00
2022-08-03T12:21:29.259Z,74.60
2022-08-03T12:24:01.922Z,76.30
2022-08-03T12:26:43.322Z,78.10
2022-08-03T12:29:18.245Z,77.60
2022-08-03T12:31:46.816Z,80.40
2022-08-03T12:34:15.651Z,84.00
2022-08-03T12:36:52.632Z,89.00
2022-08-03T12:39:25.315Z,90.50
2022-08-03T12:41:56.887Z,91.40
2022-08-03T12:44:32.149Z,92.00
2022-08-03T12:47:01.130Z,92.40
2022-08-03T12:49:30.506Z,93.00
2022-08-03T12:52:06.885Z,90.50
2022-08-03T12:54:36.206Z,91.70
2022-08-03T12:57:07.171Z,86.60
2022-08-03T12:59:40.778Z,87.00
2022-08-03T13:02:20.818Z,89.90
2022-08-03T13:04:53.487Z,82.90
2022-08-03T13:07:23.027Z,81.10
2022-08-03T13:09:53.338Z,83.80
2022-08-03T13:12:24.622Z,83.50
2022-08-03T13:14:54.171Z,86.30
2022-08-03T13:17:22.845Z,90.50
2022-08-03T13:19:52.033Z,91.20
2022-08-03T13:22:22.193Z,91.70
2022-08-03T13:24:53.071Z,92.00
2022-08-03T13:28:04.740Z,85.40
2022-08-03T13:30:12.177Z,88.60
2022-08-03T13:32:40.614Z,90.20
2022-08-03T13:35:10.952Z,81.50
2022-08-03T13:37:44.579Z,81.30
2022-08-03T13:40:17.207Z,83.30
2022-08-03T13:42:47.488Z,80.60
2022-08-03T13:45:15.744Z,82.70
2022-08-03T13:47:44.049Z,87.00
2022-08-03T13:50:12.354Z,82.70
2022-08-03T13:52:40.651Z,81.70
2022-08-03T13:55:09.801Z,80.60
2022-08-03T13:58:02.454Z,83.10
2022-08-03T14:00:29.641Z,79.60
2022-08-03T14:03:12.506Z,80.20
2022-08-03T14:05:42.197Z,78.20
2022-08-03T14:08:10.524Z,80.20
2022-08-03T14:10:40.769Z,82.80
2022-08-03T14:13:09.386Z,84.90
2022-08-03T14:15:39.195Z,85.00
2022-08-03T14:18:12.870Z,85.50
2022-08-03T14:20:49.031Z,85.70
2022-08-03T14:23:20.445Z,80.20
2022-08-03T14:25:52.210Z,78.40
2022-08-03T14:28:23.760Z,80.70
2022-08-03T14:30:54.843Z,80.30
2022-08-03T14:33:23.672Z,81.80
2022-08-03T14:35:53.331Z,84.70
2022-08-03T14:38:22.666Z,86.40
2022-08-03T14:40:51.421Z,87.20
2022-08-03T14:43:20.361Z,82.20
2022-08-03T14:45:48.852Z,84.40
2022-08-03T14:50:31.464Z,87.40
2022-08-03T14:51:07.066Z,88.30
2022-08-03T14:53:35.727Z,88.60
2022-08-03T14:56:09.403Z,90.00
2022-08-03T14:58:38.825Z,90.10
2022-08-03T15:02:02.675Z,90.10
2022-08-03T15:03:57.631Z,87.70
2022-08-03T15:06:25.986Z,82.10
2022-08-03T15:09:24.237Z,82.90
2022-08-03T15:11:42.871Z,87.10
2022-08-03T15:14:13.545Z,82.50
2022-08-03T15:16:43.104Z,79.60
2022-08-03T15:20:02.236Z,85.00
2022-08-03T15:22:01.933Z,86.40
2022-08-03T15:24:30.659Z,80.60
2022-08-03T15:26:59.238Z,81.20
2022-08-03T15:30:07.793Z,81.70
2022-08-03T15:32:16.743Z,83.70
2022-08-03T15:34:50.239Z,86.80
2022-08-03T15:37:20.782Z,89.80
2022-08-03T15:40:00.047Z,86.30
2022-08-03T15:42:30.308Z,82.30
2022-08-03T15:44:58.981Z,87.30
2022-08-03T15:47:27.896Z,85.90
2022-08-03T15:49:57.656Z,90.10
2022-08-03T15:52:26.142Z,90.20
2022-08-03T15:54:54.818Z,89.70
2022-08-03T15:57:23.812Z,90.20
2022-08-03T15:59:53.078Z,91.20
2022-08-03T16:02:21.594Z,91.30
2022-08-03T16:04:49.910Z,90.90
2022-08-03T16:07:40.310Z,91.60
2022-08-03T16:10:12.951Z,90.50
2022-08-03T16:12:43.848Z,89.80
2022-08-03T16:15:13.300Z,90.40
2022-08-03T16:17:42.418Z,91.00
2022-08-03T16:20:34.325Z,91.40
2022-08-03T16:23:11.346Z,91.80
2022-08-03T16:25:40.305Z,92.20
2022-08-03T16:28:13.775Z,86.30
2022-08-03T16:30:44.469Z,90.70
2022-08-03T16:33:17.431Z,91.60
2022-08-03T16:35:51.244Z,92.50
2022-08-03T16:38:24.728Z,92.10
2022-08-03T16:40:53.445Z,92.70
2022-08-03T16:43:23.241Z,93.30
2022-08-03T16:45:52.038Z,93.60
2022-08-03T16:48:20.717Z,94.00
2022-08-03T16:50:49.326Z,94.30
2022-08-03T16:53:51.530Z,94.60
2022-08-03T16:56:10.611Z,94.60
2022-08-03T16:58:42.524Z,94.90
2022-08-03T17:01:21.733Z,95.00
2022-08-03T17:04:02.162Z,95.10
2022-08-03T17:06:34.509Z,95.40
2022-08-03T17:09:04.505Z,95.50
2022-08-03T17:11:43.844Z,95.70
2022-08-03T17:14:17.016Z,95.80
2022-08-03T17:16:52.617Z,96.00
2022-08-03T17:19:24.150Z,96.20
2022-08-03T17:22:04.289Z,96.30
2022-08-03T17:24:34.532Z,96.30
2022-08-03T17:27:09.281Z,96.50
2022-08-03T17:30:01.381Z,96.50
2022-08-03T17:32:33.594Z,96.70
2022-08-03T17:35:02.487Z,96.80
2022-08-03T17:37:57.523Z,97.00
2022-08-03T17:40:20.368Z,97.10
2022-08-03T17:42:52.860Z,97.20
2022-08-03T17:45:22.070Z,97.40
2022-08-03T17:47:58.265Z,97.50
2022-08-03T17:50:35.920Z,97.50
2022-08-03T17:53:23.977Z,97.60
2022-08-03T17:56:40.350Z,97.80
2022-08-03T17:59:08.439Z,97.90
2022-08-03T18:02:06.181Z,98.00
2022-08-03T18:04:46.447Z,98.20
2022-08-03T18:10:21.673Z,98.40
2022-08-03T18:12:54.269Z,98.60
2022-08-03T18:15:30.579Z,98.70
2022-08-03T18:18:10.842Z,98.80
2022-08-03T18:20:42.381Z,98.80
2022-08-03T18:23:25.521Z,99.00
2022-08-03T18:26:04.959Z,99.10
2022-08-03T18:28:36.540Z,99.10
2022-08-03T18:31:07.410Z,99.20
2022-08-03T18:34:17.503Z,99.20
2022-08-03T18:36:30.560Z,99.30
2022-08-03T18:39:02.426Z,99.30
2022-08-03T18:44:52.807Z,99.30
2022-08-03T18:47:50.879Z,99.40
2022-08-03T18:50:35.725Z,99.50
2022-08-03T18:53:16.165Z,99.60
2022-08-03T18:56:01.820Z,99.70
2022-08-03T18:58:38.741Z,99.70
2022-08-03T19:02:00.544Z,99.80
2022-08-03T19:04:11.578Z,99.90
2022-08-03T19:06:44.845Z,99.90
2022-08-03T19:09:22.572Z,99.90
2022-08-03T19:12:13.189Z,99.90
2022-08-03T19:14:56.296Z,99.90
2022-08-03T19:17:29.284Z,99.90
2022-08-03T19:20:01.544Z,99.90
2022-08-03T19:22:30.707Z,99.90
2022-08-03T19:25:02.017Z,99.90
2022-08-03T19:27:32.166Z,99.90
2022-08-03T19:30:04.482Z,99.90
2022-08-03T19:32:36.656Z,99.90
2022-08-03T19:35:13.240Z,99.90
2022-08-03T19:37:45.522Z,99.90
2022-08-03T19:40:13.924Z,99.90
2022-08-03T19:42:46.519Z,99.90
2022-08-03T19:45:18.604Z,99.90
2022-08-03T19:47:52.748Z,99.90
2022-08-03T19:50:22.644Z,99.90
2022-08-03T19:52:52.473Z,99.90
2022-08-03T19:55:21.531Z,99.90
2022-08-03T19:57:54.857Z,99.90
2022-08-03T20:00:26.710Z,99.90
2022-08-03T20:02:59.524Z,99.90
2022-08-03T20:05:30.703Z,99.90
2022-08-03T20:08:20.955Z,99.90
2022-08-03T20:10:51.362Z,99.90
2022-08-03T20:13:20.742Z,99.90
2022-08-03T20:15:53.298Z,99.90
2022-08-03T20:18:22.226Z,99.90
2022-08-03T20:20:54.644Z,99.90
2022-08-03T20:23:26.189Z,99.90
2022-08-03T20:26:06.774Z,99.90
2022-08-03T20:28:50.015Z,99.90
2022-08-03T20:31:23.788Z,99.90
2022-08-03T20:33:59.267Z,99.90
2022-08-03T20:36:29.201Z,99.90
2022-08-03T20:38:58.954Z,99.90
2022-08-03T20:41:28.310Z,99.90
2022-08-03T20:44:00.961Z,99.90
2022-08-03T20:46:38.519Z,99.90
2022-08-03T20:49:23.073Z,99.90
2022-08-03T20:51:53.867Z,99.90
2022-08-03T20:54:30.521Z,99.90
2022-08-03T20:57:03.755Z,99.90
2022-08-03T20:59:46.976Z,99.90
2022-08-03T21:02:19.289Z,99.90
2022-08-03T21:04:48.754Z,99.90
2022-08-03T21:07:23.066Z,99.90
2022-08-03T21:09:55.451Z,99.90
2022-08-03T21:12:35.066Z,99.90
2022-08-03T21:12:56.703Z,98.30
2022-08-03T21:13:05.448Z,99.40
2022-08-03T21:15:06.222Z,99.90
2022-08-03T21:17:40.994Z,99.90
2022-08-03T21:20:14.088Z,99.90
2022-08-03T21:22:49.169Z,99.90
2022-08-03T21:25:18.436Z,99.90
2022-08-03T21:27:47.126Z,99.90
2022-08-03T21:30:16.060Z,99.90
2022-08-03T21:32:46.280Z,99.90
2022-08-03T21:35:15.132Z,99.90
2022-08-03T21:37:46.016Z,99.90
2022-08-03T21:40:17.215Z,99.90
2022-08-03T21:42:46.620Z,99.90
2022-08-03T21:45:17.657Z,99.90
2022-08-03T21:47:48.500Z,99.90
2022-08-03T21:50:17.842Z,99.90
2022-08-03T21:52:49.771Z,99.90
2022-08-03T21:55:21.063Z,99.90
2022-08-03T21:57:53.958Z,99.90
2022-08-03T22:00:24.093Z,99.90
2022-08-03T22:02:55.248Z,99.90
2022-08-03T22:05:42.512Z,99.90
2022-08-03T22:08:14.448Z,99.90
2022-08-03T22:10:45.504Z,99.90
2022-08-03T22:13:15.247Z,99.90
2022-08-03T22:15:44.539Z,99.90
2022-08-03T22:18:13.751Z,99.90
2022-08-03T22:20:42.131Z,99.90
2022-08-03T22:23:12.426Z,99.90
2022-08-03T22:25:41.479Z,99.90
2022-08-03T22:28:11.940Z,99.90
2022-08-03T22:30:41.691Z,99.90
2022-08-03T22:33:12.276Z,99.90
2022-08-03T22:35:47.495Z,99.90
2022-08-03T22:38:19.085Z,99.90
2022-08-03T22:40:50.887Z,99.90
2022-08-03T22:43:22.764Z,99.90
2022-08-03T22:46:10.661Z,99.90
2022-08-03T22:48:41.715Z,99.90
2022-08-03T22:51:10.999Z,99.90
2022-08-03T22:53:41.093Z,99.90
2022-08-03T22:56:09.884Z,99.90
2022-08-03T22:58:38.139Z,99.90
2022-08-03T23:01:09.078Z,99.90
2022-08-03T23:03:58.764Z,99.90
2022-08-03T23:06:34.771Z,99.90
2022-08-03T23:09:06.790Z,99.90
2022-08-03T23:11:38.033Z,99.90
2022-08-03T23:14:13.520Z,99.90
2022-08-03T23:16:43.631Z,99.90
2022-08-03T23:19:17.105Z,99.90
2022-08-03T23:22:02.456Z,99.90
2022-08-03T23:24:36.052Z,99.90
2022-08-03T23:27:05.643Z,99.90
2022-08-03T23:29:36.319Z,99.90
2022-08-03T23:32:06.067Z,99.90
2022-08-03T23:34:52.779Z,99.90
2022-08-03T23:37:21.497Z,99.90
2022-08-03T23:39:51.283Z,99.90
2022-08-03T23:42:21.029Z,99.90
2022-08-03T23:44:54.535Z,99.90
2022-08-03T23:47:23.362Z,99.90
2022-08-03T23:49:52.219Z,99.90
2022-08-03T23:52:30.177Z,99.90
2022-08-03T23:55:14.620Z,99.90
2022-08-03T23:57:53.504Z,99.90
